Bootsie B, — WDF9484 — position and weather

sailwx.info

Track history (hours):
 
Tides and Currents Weather Stations Pressure Air Temp Water Temp Dewpoint Dewpoint Depression Visibility Wind Speed Wind Dir Waves Ship Positions

Bootsie B,

Owner: Marquette Transp[ortation Co. LLC, Paducah, KY. More information available from US FCC via Universal Licensing System and Coast Guard Vessel Documentation Center.

Last reported at 2016-Sep-16 09:33 UTC. Time now 2016-Sep-27 15:35 UTC.
Position N 32°37' W 091°09'.
Warning: this ship's position is 11 days out of date.

Length 57 m; draft 2 m.

Type: Towing. MMSI: 367505630.

Date/timePositionNaut miles runAvg speedWind from/ knotsBaromVisibWave heightAir tempDewpointWater temp
2016-Sep-16 09:33N 32°37' W 091°09'8 4.1
2016-Sep-16 07:33N 32°29' W 091°07'13 3.2
2016-Sep-16 03:33N 32°21' W 090°56'3 3.2
2016-Sep-16 02:33N 32°17' W 090°56'9 4.3
2016-Sep-16 00:33N 32°09' W 091°00'8 2.7
2016-Sep-15 21:29N 32°02' W 091°04'  
2016-Sep-09 11:18N 31°42' W 091°24'7 9.5
2016-Sep-09 10:32N 31°49' W 091°21'9 8.5
2016-Sep-09 09:29N 31°54' W 091°12'7 7.8
2016-Sep-09 08:32N 31°59' W 091°07'7 7.6
2016-Sep-09 07:33N 32°07' W 091°06'5 5.4
2016-Sep-09 06:34N 32°08' W 091°00'9 9.3
2016-Sep-09 05:34N 32°17' W 090°57'5 5.2
2016-Sep-09 04:33N 32°21' W 090°60'8 8.0
2016-Sep-09 03:34N 32°27' W 091°06'8 8.4
2016-Sep-09 02:33N 32°36' W 091°08'8 8.2
2016-Sep-09 01:32N 32°43' W 091°03'  
Track history (hours):
 
Tides and Currents Weather Stations Pressure Air Temp Water Temp Dewpoint Dewpoint Depression Visibility Wind Speed Wind Dir Waves Ship Positions

Bootsie B,

Owner: Marquette Transp[ortation Co. LLC, Paducah, KY. More information available from US FCC via Universal Licensing System and Coast Guard Vessel Documentation Center.

Last reported at 2016-Sep-16 09:33 UTC. Time now 2016-Sep-27 15:35 UTC.
Position N 32°37' W 091°09'.
Warning: this ship's position is 11 days out of date.

Length 57 m; draft 2 m.

Type: Towing. MMSI: 367505630.

Date/timePositionNaut miles runAvg speedWind from/ knotsBaromVisibWave heightAir tempDewpointWater temp
2016-Sep-16 09:33N 32°37' W 091°09'8 4.1
2016-Sep-16 07:33N 32°29' W 091°07'13 3.2
2016-Sep-16 03:33N 32°21' W 090°56'3 3.2
2016-Sep-16 02:33N 32°17' W 090°56'9 4.3
2016-Sep-16 00:33N 32°09' W 091°00'8 2.7
2016-Sep-15 21:29N 32°02' W 091°04'  
2016-Sep-09 11:18N 31°42' W 091°24'7 9.5
2016-Sep-09 10:32N 31°49' W 091°21'9 8.5
2016-Sep-09 09:29N 31°54' W 091°12'7 7.8
2016-Sep-09 08:32N 31°59' W 091°07'7 7.6
2016-Sep-09 07:33N 32°07' W 091°06'5 5.4
2016-Sep-09 06:34N 32°08' W 091°00'9 9.3
2016-Sep-09 05:34N 32°17' W 090°57'5 5.2
2016-Sep-09 04:33N 32°21' W 090°60'8 8.0
2016-Sep-09 03:34N 32°27' W 091°06'8 8.4
2016-Sep-09 02:33N 32°36' W 091°08'8 8.2
2016-Sep-09 01:32N 32°43' W 091°03'  

Dump ship's entire track history